Time;durP1;ratioP1;P1;durP2;ratioP2;P2;SDS_P1;SDS_P2;PMS_P1;PMS_P2;Temp;Humidity;BMP_temperature;BMP_pressure;BME280_temperature;BME280_humidity;BME280_pressure;Samples;Min_cycle;Max_cycle;Signal;HPM_P1;HPM_P2
2022/09/20 00:00:50;;;;;;;;;;;;;;;13.39;55.35;100725.84;5067116;28;19916;-90
2022/09/20 00:03:17;;;;;;;;;;;;;;;13.43;55.31;100716.38;5050329;28;19920;-88
2022/09/20 00:05:43;;;;;;;;;;;;;;;13.45;55.47;100722.44;5072183;28;19917;-90
2022/09/20 00:08:13;;;;;;;;;;;;;;;13.42;55.48;100715.56;5055597;28;19956;-87
2022/09/20 00:10:38;;;;;;;;;;;;;;;13.46;55.50;100714.19;5054583;28;19987;-88
2022/09/20 00:13:04;;;;;;;;;;;;;;;13.42;55.87;100714.72;5052293;28;19924;-89
2022/09/20 00:15:29;;;;;;;;;;;;;;;13.47;55.89;100698.81;5032536;28;19921;-91
2022/09/20 00:17:56;;;;;;;;;;;;;;;13.41;55.74;100702.22;5032790;28;20203;-88
2022/09/20 00:20:21;;;;;;;;;;;;;;;13.48;55.79;100692.38;5038023;28;19919;-88
2022/09/20 00:22:48;;;;;;;;;;;;;;;13.44;55.86;100691.06;5034643;28;19924;-88
2022/09/20 00:25:15;;;;;;;;;;;;;;;13.48;55.74;100687.81;5053109;28;19931;-89
2022/09/20 00:27:40;;;;;;;;;;;;;;;13.44;56.19;100685.69;5045021;28;19917;-89
2022/09/20 00:30:12;;;;;;;;;;;;;;;13.47;56.29;100682.59;5050490;28;19923;-90
2022/09/20 00:32:47;;;;;;;;;;;;;;;13.42;56.08;100656.13;5075761;28;20062;-90
2022/09/20 00:35:14;;;;;;;;;;;;;;;13.44;56.15;100666.78;5059069;28;19913;-89
2022/09/20 00:37:40;;;;;;;;;;;;;;;13.41;56.06;100669.81;5069737;28;19942;-88
2022/09/20 00:40:06;;;;;;;;;;;;;;;13.43;55.98;100670.47;5034764;28;20400;-88
2022/09/20 00:42:32;;;;;;;;;;;;;;;13.40;56.41;100668.16;5069051;28;20006;-89
2022/09/20 00:44:58;;;;;;;;;;;;;;;13.43;56.10;100667.78;5072996;28;20465;-89
2022/09/20 00:47:24;;;;;;;;;;;;;;;13.39;56.24;100666.44;5036681;28;19924;-89
2022/09/20 00:49:50;;;;;;;;;;;;;;;13.41;55.95;100664.41;5076804;28;19916;-89
2022/09/20 00:52:20;;;;;;;;;;;;;;;13.43;56.10;100659.66;5051718;28;19927;-88
2022/09/20 00:54:46;;;;;;;;;;;;;;;13.41;55.99;100648.22;5076931;28;19991;-89
2022/09/20 00:57:12;;;;;;;;;;;;;;;13.39;56.22;100659.22;5049266;28;19939;-88
2022/09/20 00:59:38;;;;;;;;;;;;;;;13.41;55.81;100651.75;5054668;28;19924;-87
2022/09/20 01:02:17;;;;;;;;;;;;;;;13.38;55.82;100648.56;5065019;28;19939;-89
2022/09/20 01:04:46;;;;;;;;;;;;;;;13.39;55.81;100650.25;5056361;28;19925;-89
2022/09/20 01:07:14;;;;;;;;;;;;;;;13.39;55.90;100651.09;5057285;28;19969;-90
2022/09/20 01:09:40;;;;;;;;;;;;;;;13.33;56.00;100649.09;5068841;28;19989;-88
2022/09/20 01:12:08;;;;;;;;;;;;;;;13.36;56.03;100656.00;5068391;28;20392;-89
2022/09/20 01:14:33;;;;;;;;;;;;;;;13.33;56.19;100656.38;5035774;28;19999;-89
2022/09/20 01:16:59;;;;;;;;;;;;;;;13.28;56.18;100644.25;5039685;28;20043;-88
2022/09/20 01:19:33;;;;;;;;;;;;;;;13.34;56.16;100647.25;5038771;28;19924;-90
2022/09/20 01:22:00;;;;;;;;;;;;;;;13.35;56.12;100646.25;5045996;28;19917;-90
2022/09/20 01:24:57;;;;;;;;;;;;;;;13.35;56.06;100654.34;5053751;28;19970;-90
2022/09/20 01:27:32;;;;;;;;;;;;;;;13.27;56.47;100657.88;5052012;28;19920;-90
2022/09/20 01:30:00;;;;;;;;;;;;;;;13.25;56.42;100658.09;5056665;28;19974;-89
2022/09/20 01:32:34;;;;;;;;;;;;;;;13.18;56.54;100669.75;5074519;28;19973;-90
2022/09/20 01:34:59;;;;;;;;;;;;;;;13.30;56.52;100669.22;5053204;28;20027;-90
2022/09/20 01:37:38;;;;;;;;;;;;;;;13.25;56.99;100671.59;5053741;28;19959;-91
2022/09/20 01:40:05;;;;;;;;;;;;;;;13.21;56.89;100669.41;5047432;28;19927;-87
2022/09/20 01:42:33;;;;;;;;;;;;;;;13.28;56.78;100676.66;5067445;28;19916;-88
2022/09/20 01:45:04;;;;;;;;;;;;;;;13.33;56.65;100684.22;5048745;28;19917;-90
2022/09/20 01:47:34;;;;;;;;;;;;;;;13.22;56.86;100677.31;5060679;28;19916;-88
2022/09/20 01:49:59;;;;;;;;;;;;;;;13.23;56.78;100668.22;5069227;28;19916;-88
2022/09/20 01:52:43;;;;;;;;;;;;;;;13.19;57.19;100680.38;5068811;28;20414;-88
2022/09/20 01:55:09;;;;;;;;;;;;;;;13.14;57.20;100674.69;5066691;28;19921;-87
2022/09/20 01:58:06;;;;;;;;;;;;;;;13.15;57.21;100676.34;5072390;28;19981;-89
2022/09/20 02:00:45;;;;;;;;;;;;;;;13.15;57.07;100675.50;5018167;28;19924;-91
2022/09/20 02:03:43;;;;;;;;;;;;;;;13.17;57.04;100668.09;5073135;28;19943;-90
2022/09/20 02:06:22;;;;;;;;;;;;;;;13.13;57.25;100667.56;5005185;28;19920;-90
2022/09/20 02:08:47;;;;;;;;;;;;;;;13.18;57.04;100670.63;5039723;28;19931;-89
2022/09/20 02:11:17;;;;;;;;;;;;;;;13.20;56.96;100663.16;5074464;28;19943;-89
2022/09/20 02:13:46;;;;;;;;;;;;;;;13.17;57.30;100677.00;5057424;28;20285;-90
2022/09/20 02:16:30;;;;;;;;;;;;;;;13.18;57.21;100667.91;5054206;28;19965;-89
2022/09/20 02:18:59;;;;;;;;;;;;;;;13.22;56.88;100677.31;5081526;28;19924;-88
2022/09/20 02:21:30;;;;;;;;;;;;;;;13.22;57.00;100680.00;5084957;28;19920;-91
2022/09/20 02:24:21;;;;;;;;;;;;;;;13.20;57.03;100689.31;5087145;28;19992;-89
2022/09/20 02:27:06;;;;;;;;;;;;;;;13.32;56.84;100687.06;5092701;28;19925;-88
2022/09/20 02:29:55;;;;;;;;;;;;;;;13.34;56.81;100690.44;5088850;28;19923;-90
2022/09/20 02:32:23;;;;;;;;;;;;;;;13.33;56.74;100694.19;5062265;28;19926;-91
2022/09/20 02:35:05;;;;;;;;;;;;;;;13.35;56.89;100698.38;5075338;28;19916;-88
2022/09/20 02:37:36;;;;;;;;;;;;;;;13.34;56.26;100690.44;5069123;28;19927;-90
2022/09/20 02:40:05;;;;;;;;;;;;;;;13.37;56.11;100696.34;5076237;28;19924;-90
2022/09/20 02:42:37;;;;;;;;;;;;;;;13.37;55.83;100698.19;5060208;28;19966;-90
2022/09/20 02:45:21;;;;;;;;;;;;;;;13.29;56.01;100702.63;5049987;28;19909;-89
2022/09/20 02:47:46;;;;;;;;;;;;;;;13.30;55.92;100688.13;5069148;28;19912;-89
2022/09/20 02:50:31;;;;;;;;;;;;;;;13.33;55.98;100695.00;5076851;28;19908;-89
2022/09/20 02:53:15;;;;;;;;;;;;;;;13.27;55.95;100701.09;5076882;28;19909;-88
2022/09/20 02:55:52;;;;;;;;;;;;;;;13.30;55.66;100681.88;5093216;28;19920;-89
2022/09/20 02:58:18;;;;;;;;;;;;;;;13.28;55.61;100692.84;5072034;28;19913;-87
2022/09/20 03:00:49;;;;;;;;;;;;;;;13.30;56.06;100689.97;5067394;28;20312;-88
2022/09/20 03:03:17;;;;;;;;;;;;;;;13.35;55.75;100692.97;5071446;28;19927;-90
2022/09/20 03:06:02;;;;;;;;;;;;;;;13.25;56.26;100700.41;5033287;28;19923;-89
2022/09/20 03:08:42;;;;;;;;;;;;;;;13.34;56.32;100690.44;5061328;28;19923;-89
2022/09/20 03:11:26;;;;;;;;;;;;;;;13.17;56.75;100706.72;5049713;28;19916;-90
2022/09/20 03:14:06;;;;;;;;;;;;;;;13.19;56.54;100695.75;5074241;28;19924;-92
2022/09/20 03:17:09;;;;;;;;;;;;;;;13.13;56.84;100705.38;5037516;28;20352;-91
2022/09/20 03:19:37;;;;;;;;;;;;;;;13.18;56.91;100713.81;4992806;28;19917;-91
2022/09/20 03:22:12;;;;;;;;;;;;;;;13.09;56.92;100704.91;5064559;28;20024;-89
2022/09/20 03:24:42;;;;;;;;;;;;;;;12.93;57.77;100723.88;5049901;28;19927;-89
2022/09/20 03:27:14;;;;;;;;;;;;;;;12.98;57.83;100712.53;5055645;28;19920;-89
2022/09/20 03:30:02;;;;;;;;;;;;;;;12.97;57.71;100721.63;5054598;28;19920;-88
2022/09/20 03:32:46;;;;;;;;;;;;;;;12.94;57.83;100724.69;5055185;28;19927;-90
2022/09/20 03:35:30;;;;;;;;;;;;;;;12.93;58.11;100714.94;5070528;28;19913;-90
2022/09/20 03:38:16;;;;;;;;;;;;;;;12.82;58.23;100724.25;5065882;28;19924;-92
2022/09/20 03:41:12;;;;;;;;;;;;;;;12.78;58.51;100726.47;5060493;28;19916;-90
2022/09/20 03:43:40;;;;;;;;;;;;;;;12.74;58.58;100727.81;4995486;28;19976;-89
2022/09/20 03:46:05;;;;;;;;;;;;;;;12.77;58.52;100715.81;5001962;28;20012;-91
2022/09/20 03:49:03;;;;;;;;;;;;;;;12.62;58.89;100740.00;5011594;28;19921;-90
2022/09/20 03:51:31;;;;;;;;;;;;;;;12.63;59.04;100731.72;5018646;28;19994;-91
2022/09/20 03:54:20;;;;;;;;;;;;;;;12.62;59.04;100726.50;5043156;28;19927;-87
2022/09/20 03:57:05;;;;;;;;;;;;;;;12.59;59.25;100735.75;5066442;28;20414;-89
2022/09/20 03:59:49;;;;;;;;;;;;;;;12.52;59.23;100740.16;5069643;28;20237;-88
2022/09/20 04:02:23;;;;;;;;;;;;;;;12.51;59.32;100737.66;5070646;28;19916;-90
2022/09/20 04:05:19;;;;;;;;;;;;;;;12.47;59.47;100745.22;5055941;28;19938;-89
2022/09/20 04:08:03;;;;;;;;;;;;;;;12.51;59.40;100751.97;5067515;28;19965;-89
2022/09/20 04:10:58;;;;;;;;;;;;;;;12.57;59.46;100742.34;5076818;28;19916;-90
2022/09/20 04:13:42;;;;;;;;;;;;;;;12.48;59.43;100751.44;5068920;28;19927;-89
2022/09/20 04:16:20;;;;;;;;;;;;;;;12.53;59.42;100746.41;5075762;28;19955;-89
2022/09/20 04:18:58;;;;;;;;;;;;;;;12.56;59.48;100759.53;5070089;28;19973;-90
2022/09/20 04:21:56;;;;;;;;;;;;;;;12.53;59.54;100741.03;5068305;28;19920;-90
2022/09/20 04:24:34;;;;;;;;;;;;;;;12.54;59.54;100745.38;5068575;28;19963;-89
2022/09/20 04:27:00;;;;;;;;;;;;;;;12.52;59.69;100750.94;5065660;28;20342;-88
2022/09/20 04:29:52;;;;;;;;;;;;;;;12.40;60.27;100755.84;5053694;28;20011;-90
2022/09/20 04:32:36;;;;;;;;;;;;;;;12.39;60.11;100759.56;5033374;28;20410;-89
2022/09/20 04:37:46;;;;;;;;;;;;;;;12.39;60.08;100767.66;5060118;28;19931;-88
2022/09/20 04:40:14;;;;;;;;;;;;;;;12.39;60.41;100772.22;5060574;28;20373;-90
2022/09/20 04:43:17;;;;;;;;;;;;;;;12.33;60.58;100772.88;5069739;28;19920;-88
2022/09/20 04:46:01;;;;;;;;;;;;;;;12.27;60.75;100758.25;4987221;28;19922;-90
2022/09/20 04:48:36;;;;;;;;;;;;;;;12.23;60.79;100765.81;5060232;28;19922;-89
2022/09/20 04:51:22;;;;;;;;;;;;;;;12.22;60.72;100764.13;5068935;28;19916;-88
2022/09/20 04:53:59;;;;;;;;;;;;;;;12.21;60.28;100762.44;5044010;28;19962;-88
2022/09/20 04:56:37;;;;;;;;;;;;;;;12.21;61.00;100762.44;5064935;28;19920;-89
2022/09/20 04:59:10;;;;;;;;;;;;;;;12.25;60.19;100771.88;5048897;28;19951;-89
2022/09/20 05:01:54;;;;;;;;;;;;;;;12.25;60.24;100763.78;5061591;28;19923;-90
2022/09/20 05:04:39;;;;;;;;;;;;;;;12.22;60.17;100764.13;5068492;28;19916;-90
2022/09/20 05:07:10;;;;;;;;;;;;;;;12.27;59.99;100770.84;5062844;28;19912;-90
2022/09/20 05:09:54;;;;;;;;;;;;;;;12.18;60.30;100772.72;5067919;28;19916;-89
2022/09/20 05:12:26;;;;;;;;;;;;;;;12.19;60.02;100758.22;5048708;28;19916;-90
2022/09/20 05:15:11;;;;;;;;;;;;;;;12.19;60.18;100756.38;5053413;28;19920;-90
2022/09/20 05:17:52;;;;;;;;;;;;;;;12.19;59.79;100760.94;5053053;28;20015;-89
2022/09/20 05:20:37;;;;;;;;;;;;;;;12.25;59.69;100750.31;5052207;28;19916;-85
2022/09/20 05:23:12;;;;;;;;;;;;;;;12.19;60.02;100739.38;5051900;28;19982;-89
2022/09/20 05:25:38;;;;;;;;;;;;;;;12.20;59.85;100750.00;5058307;28;19913;-90
2022/09/20 05:28:18;;;;;;;;;;;;;;;12.24;59.82;100754.03;5074713;28;19916;-90
2022/09/20 05:30:46;;;;;;;;;;;;;;;12.30;59.93;100741.72;5053038;28;19916;-90
2022/09/20 05:33:21;;;;;;;;;;;;;;;12.23;59.47;100746.09;5048091;28;20315;-86
2022/09/20 05:35:55;;;;;;;;;;;;;;;12.35;59.24;100750.13;5072177;28;19920;-89
2022/09/20 05:38:22;;;;;;;;;;;;;;;12.50;58.53;100754.81;5066788;28;19917;-86
2022/09/20 05:41:07;;;;;;;;;;;;;;;12.79;57.18;100762.38;5072274;28;19916;-89
2022/09/20 05:43:34;;;;;;;;;;;;;;;13.40;55.28;100760.78;5066236;28;20384;-85
2022/09/20 05:46:11;;;;;;;;;;;;;;;13.77;54.24;100766.50;5054583;28;19923;-86
2022/09/20 05:48:56;;;;;;;;;;;;;;;14.23;53.15;100777.28;5054842;28;19938;-86
2022/09/20 05:51:33;;;;;;;;;;;;;;;14.61;51.43;100769.19;5071003;28;20392;-88
2022/09/20 05:54:17;;;;;;;;;;;;;;;14.78;50.32;100776.13;5054983;28;19916;-88
2022/09/20 05:56:42;;;;;;;;;;;;;;;15.27;49.78;100778.25;5074981;28;20482;-89
2022/09/20 05:59:10;;;;;;;;;;;;;;;15.64;48.53;100773.69;5075676;28;19959;-87
2022/09/20 06:01:45;;;;;;;;;;;;;;;16.09;47.18;100773.56;5072281;28;19927;-88
2022/09/20 06:04:24;;;;;;;;;;;;;;;16.31;46.35;100782.50;5044245;28;19917;-87
2022/09/20 06:06:54;;;;;;;;;;;;;;;16.77;45.70;100779.31;5044227;28;20270;-89
2022/09/20 06:09:39;;;;;;;;;;;;;;;16.88;45.05;100790.50;5068998;28;19935;-89
2022/09/20 06:12:07;;;;;;;;;;;;;;;17.25;43.93;100780.22;5056086;28;19916;-90
2022/09/20 06:14:36;;;;;;;;;;;;;;;17.59;43.30;100792.09;5080969;28;19976;-88
2022/09/20 06:17:17;;;;;;;;;;;;;;;17.82;42.71;100791.75;5075161;28;19973;-92
2022/09/20 06:19:51;;;;;;;;;;;;;;;17.76;41.98;100814.28;5073265;28;19960;-90
2022/09/20 06:22:21;;;;;;;;;;;;;;;17.60;42.73;100791.03;5067593;28;19962;-89
2022/09/20 06:24:47;;;;;;;;;;;;;;;17.50;43.26;100799.56;5050221;28;19923;-88
2022/09/20 06:27:17;;;;;;;;;;;;;;;17.89;42.86;100799.94;5054043;28;19912;-89
2022/09/20 06:29:44;;;;;;;;;;;;;;;18.50;41.17;100793.53;5032404;28;20023;-85
2022/09/20 06:32:17;;;;;;;;;;;;;;;18.29;41.33;100802.72;5047678;28;19917;-88
2022/09/20 06:34:45;;;;;;;;;;;;;;;18.50;40.90;100807.13;5068588;28;20061;-89
2022/09/20 06:43:25;;;;;;;;;;;;;;;18.11;40.91;100811.47;5114495;23;19928;-89
2022/09/20 06:49:10;;;;;;;;;;;;;;;17.95;40.70;100801.00;5039918;28;19921;-91
2022/09/20 06:51:49;;;;;;;;;;;;;;;17.92;40.75;100805.78;5011269;28;19917;-92
2022/09/20 06:54:18;;;;;;;;;;;;;;;18.31;40.32;100800.63;5043817;28;19931;-92
2022/09/20 06:56:47;;;;;;;;;;;;;;;18.08;40.78;100801.03;5005090;28;19913;-91
2022/09/20 06:59:33;;;;;;;;;;;;;;;17.83;41.07;100798.88;5020980;28;19966;-88
2022/09/20 07:02:01;;;;;;;;;;;;;;;18.35;40.56;100801.88;5033322;28;20361;-88
2022/09/20 07:04:27;;;;;;;;;;;;;;;18.56;39.75;100796.22;5015012;28;19917;-90
2022/09/20 07:06:58;;;;;;;;;;;;;;;18.54;39.60;100802.91;4996944;28;20015;-89
2022/09/20 07:09:24;;;;;;;;;;;;;;;18.95;39.17;100791.81;4998849;28;19917;-90
2022/09/20 07:12:17;;;;;;;;;;;;;;;19.19;38.32;100797.59;5018439;28;19984;-91
2022/09/20 07:15:06;;;;;;;;;;;;;;;19.33;37.98;100803.84;5028562;28;20352;-93
2022/09/20 07:17:37;;;;;;;;;;;;;;;19.46;37.66;100805.72;5034485;28;19920;-90
2022/09/20 07:20:03;;;;;;;;;;;;;;;19.51;37.22;100806.72;5017157;28;20032;-88
2022/09/20 07:22:28;;;;;;;;;;;;;;;19.86;36.76;100803.66;5033003;28;19913;-88
2022/09/20 07:24:54;;;;;;;;;;;;;;;20.18;35.97;100809.09;5033426;28;19948;-89
2022/09/20 07:27:20;;;;;;;;;;;;;;;20.56;35.13;100800.03;5027029;28;19952;-88
2022/09/20 07:29:46;;;;;;;;;;;;;;;20.80;34.66;100807.34;5044910;28;19928;-90
2022/09/20 07:32:11;;;;;;;;;;;;;;;21.64;33.05;100804.97;5050814;28;20014;-88
2022/09/20 07:34:37;;;;;;;;;;;;;;;21.64;31.70;100804.97;5084105;23;19921;-92
2022/09/20 07:37:03;;;;;;;;;;;;;;;22.01;31.18;100809.50;5031499;28;20008;-91
2022/09/20 07:39:34;;;;;;;;;;;;;;;22.25;30.16;100813.19;5054285;28;19964;-91
2022/09/20 07:42:05;;;;;;;;;;;;;;;23.16;28.67;100805.50;5037149;28;19960;-92
2022/09/20 07:44:31;;;;;;;;;;;;;;;22.92;28.42;100811.00;5001692;28;19983;-91
2022/09/20 07:46:57;;;;;;;;;;;;;;;23.46;27.72;100809.97;5030598;28;19918;-91
2022/09/20 07:49:25;;;;;;;;;;;;;;;24.16;26.90;100808.84;5015985;28;19913;-93
2022/09/20 07:52:13;;;;;;;;;;;;;;;24.05;27.04;100802.38;5017775;28;19948;-91
2022/09/20 07:55:01;;;;;;;;;;;;;;;24.58;26.68;100820.34;5021704;28;19924;-93
2022/09/20 07:57:36;;;;;;;;;;;;;;;25.31;25.87;100808.47;5027362;28;19917;-92
2022/09/20 08:00:02;;;;;;;;;;;;;;;25.72;25.06;100808.97;5021974;28;20352;-90
2022/09/20 08:02:28;;;;;;;;;;;;;;;26.57;24.30;100809.28;5002326;28;19925;-91
2022/09/20 08:04:53;;;;;;;;;;;;;;;27.57;23.28;100807.38;5030249;28;19920;-92
2022/09/20 08:07:22;;;;;;;;;;;;;;;27.16;23.51;100804.44;5044596;28;19975;-92
2022/09/20 08:09:47;;;;;;;;;;;;;;;28.18;22.33;100805.88;5038331;28;19994;-91
2022/09/20 08:12:25;;;;;;;;;;;;;;;28.87;21.37;100807.28;5052306;28;19913;-90
2022/09/20 08:14:51;;;;;;;;;;;;;;;29.22;20.31;100806.38;5027831;28;19921;-93
2022/09/20 08:17:18;;;;;;;;;;;;;;;28.65;20.66;100821.41;5033346;28;19913;-93
2022/09/20 08:19:45;;;;;;;;;;;;;;;28.85;20.40;100792.06;5039818;28;19917;-93
2022/09/20 08:22:11;;;;;;;;;;;;;;;29.53;20.10;100808.19;5017611;28;20278;-92
2022/09/20 08:24:38;;;;;;;;;;;;;;;30.14;18.74;100802.31;5043609;28;19924;-93
2022/09/20 08:27:07;;;;;;;;;;;;;;;31.20;17.71;100798.81;5033959;28;19927;-91
2022/09/20 08:29:33;;;;;;;;;;;;;;;32.33;17.05;100797.25;5029286;28;19912;-92
2022/09/20 08:32:00;;;;;;;;;;;;;;;32.80;15.70;100798.97;5014891;28;20304;-92
2022/09/20 08:34:26;;;;;;;;;;;;;;;31.56;16.58;100795.63;5022465;28;19921;-94
2022/09/20 08:36:55;;;;;;;;;;;;;;;31.09;17.01;100794.50;5048851;28;20381;-92
2022/09/20 08:39:20;;;;;;;;;;;;;;;32.39;16.17;100793.28;5038136;28;19935;-87
2022/09/20 08:41:46;;;;;;;;;;;;;;;31.42;16.78;100789.13;5045867;28;19999;-90
2022/09/20 08:44:23;;;;;;;;;;;;;;;30.96;16.61;100781.34;5049682;28;20012;-87
2022/09/20 08:47:04;;;;;;;;;;;;;;;30.88;17.28;100782.81;5027853;28;19917;-91
2022/09/20 08:49:36;;;;;;;;;;;;;;;29.63;18.23;100774.88;5061492;28;19916;-95
2022/09/20 08:52:04;;;;;;;;;;;;;;;28.37;19.77;100782.13;5045147;28;19917;-90
2022/09/20 08:54:30;;;;;;;;;;;;;;;29.95;18.24;100777.22;5046185;28;20023;-88
2022/09/20 08:57:04;;;;;;;;;;;;;;;32.06;16.34;100772.97;5035329;28;19963;-95
2022/09/20 08:59:54;;;;;;;;;;;;;;;33.35;15.61;100761.13;5063795;28;19975;-95
2022/09/20 09:02:28;;;;;;;;;;;;;;;34.14;14.53;100762.69;5044831;28;19916;-95
2022/09/20 09:04:57;;;;;;;;;;;;;;;35.32;13.72;100762.31;5060083;28;20015;-91
2022/09/20 09:07:23;;;;;;;;;;;;;;;35.72;13.55;100771.44;5050317;28;20411;-91
2022/09/20 09:09:50;;;;;;;;;;;;;;;34.85;13.83;100748.84;5054977;28;19983;-92
2022/09/20 09:12:28;;;;;;;;;;;;;;;35.66;13.12;100764.34;5037526;28;20371;-91
2022/09/20 09:14:56;;;;;;;;;;;;;;;35.04;14.05;100760.56;5051862;28;19921;-90
2022/09/20 09:17:31;;;;;;;;;;;;;;;34.70;13.61;100758.47;5026960;28;19917;-93
2022/09/20 09:20:15;;;;;;;;;;;;;;;36.46;12.46;100759.19;5058094;28;19916;-92
2022/09/20 09:22:41;;;;;;;;;;;;;;;37.43;11.73;100748.41;5053499;28;20007;-89
2022/09/20 09:25:08;;;;;;;;;;;;;;;37.08;11.91;100752.22;5038375;28;19971;-92
2022/09/20 09:27:34;;;;;;;;;;;;;;;37.39;10.90;100748.25;5057619;28;19924;-91
2022/09/20 09:30:21;;;;;;;;;;;;;;;37.45;11.18;100744.09;5040045;28;19987;-95
2022/09/20 09:32:46;;;;;;;;;;;;;;;38.15;10.06;100761.19;5058565;28;19995;-92
2022/09/20 09:35:38;;;;;;;;;;;;;;;38.30;9.94;100750.47;5050460;28;20379;-90
2022/09/20 09:38:12;;;;;;;;;;;;;;;38.69;9.34;100765.09;5053935;28;20432;-92
2022/09/20 09:40:41;;;;;;;;;;;;;;;38.04;9.72;100770.41;5040757;28;20462;-90
2022/09/20 09:43:22;;;;;;;;;;;;;;;37.63;9.22;100760.81;5045484;28;19917;-90
2022/09/20 09:45:48;;;;;;;;;;;;;;;38.47;9.15;100760.72;5052438;28;19920;-88
2022/09/20 09:48:17;;;;;;;;;;;;;;;39.59;8.44;100757.59;5035369;28;19920;-92
2022/09/20 09:50:44;;;;;;;;;;;;;;;40.58;8.04;100747.56;5036939;28;20007;-91
2022/09/20 09:53:17;;;;;;;;;;;;;;;39.74;8.32;100747.59;5052537;28;19982;-95
2022/09/20 09:56:09;;;;;;;;;;;;;;;40.12;8.26;100766.00;5049398;28;19917;-96
2022/09/20 10:02:13;;;;;;;;;;;;;;;;;;;;;
2022/09/20 10:04:48;;;;;;;;;;;;;;;38.37;9.01;100757.16;5049271;28;20035;-92
2022/09/20 10:07:34;;;;;;;;;;;;;;;38.42;9.25;100759.78;5053055;28;20356;-89
2022/09/20 10:10:08;;;;;;;;;;;;;;;38.18;9.35;100751.25;5050728;28;20003;-93
2022/09/20 10:12:37;;;;;;;;;;;;;;;38.80;9.04;100755.06;5054107;28;19917;-93
2022/09/20 10:15:12;;;;;;;;;;;;;;;39.19;8.91;100756.34;5052392;28;19927;-90
2022/09/20 10:17:46;;;;;;;;;;;;;;;40.23;8.18;100748.22;5053424;28;19923;-91
2022/09/20 10:20:14;;;;;;;;;;;;;;;40.40;7.80;100746.25;5049908;28;19946;-91
2022/09/20 10:22:48;;;;;;;;;;;;;;;39.45;8.58;100746.72;5040960;28;19913;-91
2022/09/20 10:25:22;;;;;;;;;;;;;;;37.66;8.80;100751.72;5053232;28;19951;-91
2022/09/20 10:27:51;;;;;;;;;;;;;;;37.55;9.76;100734.47;5039036;28;20392;-91
2022/09/20 10:30:19;;;;;;;;;;;;;;;36.92;9.51;100745.53;5048454;28;20012;-92
2022/09/20 10:33:02;;;;;;;;;;;;;;;37.29;9.19;100738.25;5031232;28;19924;-91
2022/09/20 10:35:47;;;;;;;;;;;;;;;38.42;8.71;100734.50;5036450;28;19956;-90
2022/09/20 10:38:32;;;;;;;;;;;;;;;37.68;9.28;100738.19;5051776;28;19916;-90
2022/09/20 10:44:04;;;;;;;;;;;;;;;39.65;8.55;100725.22;5033246;28;19963;-91
2022/09/20 10:46:50;;;;;;;;;;;;;;;39.64;8.57;100730.03;5049705;28;19912;-91
2022/09/20 10:49:34;;;;;;;;;;;;;;;38.39;9.04;100728.75;5054864;28;19916;-91
2022/09/20 10:52:05;;;;;;;;;;;;;;;38.07;9.28;100728.41;5059173;28;19983;-88
2022/09/20 10:54:37;;;;;;;;;;;;;;;39.01;8.62;100724.06;5058533;28;19927;-92
2022/09/20 10:57:17;;;;;;;;;;;;;;;38.32;9.03;100723.69;5034563;28;19917;-91
2022/09/20 11:00:03;;;;;;;;;;;;;;;37.70;9.17;100735.84;5048622;28;19916;-91
2022/09/20 11:02:30;;;;;;;;;;;;;;;38.08;9.24;100726.44;5024559;28;19916;-90
2022/09/20 11:04:59;;;;;;;;;;;;;;;38.34;9.22;100728.97;5052675;28;19970;-91
2022/09/20 11:07:30;;;;;;;;;;;;;;;37.72;9.54;100722.28;5051646;28;19990;-91
2022/09/20 11:10:06;;;;;;;;;;;;;;;37.12;9.78;100725.19;5037648;28;19913;-91
2022/09/20 11:12:38;;;;;;;;;;;;;;;37.02;10.05;100722.75;5029383;28;19913;-90
2022/09/20 11:15:12;;;;;;;;;;;;;;;36.51;10.00;100721.81;5052321;28;20391;-90
2022/09/20 11:17:44;;;;;;;;;;;;;;;35.92;10.83;100712.03;5053212;28;19928;-92
2022/09/20 11:20:12;;;;;;;;;;;;;;;35.98;10.42;100717.47;5044680;28;19913;-92
2022/09/20 11:22:57;;;;;;;;;;;;;;;36.34;10.46;100709.50;5040174;28;19924;-92
2022/09/20 11:25:34;;;;;;;;;;;;;;;35.56;11.04;100711.53;5043985;28;19923;-89
2022/09/20 11:28:19;;;;;;;;;;;;;;;33.96;12.59;100711.53;5037770;28;19920;-91
2022/09/20 11:30:51;;;;;;;;;;;;;;;32.76;13.05;100702.47;5054174;28;19920;-91
2022/09/20 11:33:20;;;;;;;;;;;;;;;32.94;13.47;100709.88;5055868;28;19984;-91
2022/09/20 11:35:46;;;;;;;;;;;;;;;31.76;14.56;100697.25;5021273;28;19974;-90
2022/09/20 11:38:42;;;;;;;;;;;;;;;32.12;14.24;100702.22;5033093;28;19917;-90
2022/09/20 11:41:07;;;;;;;;;;;;;;;30.63;14.96;100708.97;5043043;28;19948;-91
2022/09/20 11:43:34;;;;;;;;;;;;;;;29.53;15.95;100705.72;5052686;28;19913;-89
2022/09/20 11:46:01;;;;;;;;;;;;;;;30.12;15.64;100706.69;5060375;28;19924;-88
2022/09/20 11:48:31;;;;;;;;;;;;;;;30.46;15.63;100709.41;5019216;28;19920;-92
2022/09/20 11:51:03;;;;;;;;;;;;;;;29.56;16.15;100707.91;5035156;28;19921;-91
2022/09/20 11:53:53;;;;;;;;;;;;;;;29.57;16.24;100704.84;5028558;28;19920;-91
2022/09/20 11:56:19;;;;;;;;;;;;;;;30.04;15.75;100708.13;5034348;28;19913;-91
2022/09/20 11:58:48;;;;;;;;;;;;;;;29.58;16.32;100709.28;5054901;28;19971;-89
2022/09/20 12:01:14;;;;;;;;;;;;;;;29.13;16.99;100705.66;5035894;28;19920;-90
2022/09/20 12:03:41;;;;;;;;;;;;;;;28.14;17.76;100700.59;5037619;28;19913;-91
2022/09/20 12:06:08;;;;;;;;;;;;;;;27.82;18.04;100711.06;5065217;28;19994;-90
2022/09/20 12:08:36;;;;;;;;;;;;;;;27.48;18.11;100700.50;5047648;28;19935;-89
2022/09/20 12:11:07;;;;;;;;;;;;;;;27.14;18.94;100701.78;5052763;28;19912;-89
2022/09/20 12:13:35;;;;;;;;;;;;;;;26.65;19.35;100704.84;5061070;28;19900;-90
2022/09/20 12:16:04;;;;;;;;;;;;;;;26.22;19.90;100698.50;5075172;28;19905;-90
2022/09/20 12:18:33;;;;;;;;;;;;;;;25.98;19.92;100694.44;5063577;28;20343;-84
2022/09/20 12:20:58;;;;;;;;;;;;;;;25.32;20.87;100706.41;5057269;28;19921;-88
2022/09/20 12:23:41;;;;;;;;;;;;;;;25.13;20.94;100699.56;5037480;28;20367;-88
2022/09/20 12:26:19;;;;;;;;;;;;;;;24.97;21.19;100704.03;5052895;28;19955;-88
2022/09/20 12:28:49;;;;;;;;;;;;;;;25.20;20.90;100697.47;5051067;28;20300;-89
2022/09/20 12:31:20;;;;;;;;;;;;;;;25.27;20.83;100703.63;5051071;28;19918;-89
2022/09/20 12:34:01;;;;;;;;;;;;;;;25.57;20.78;100702.28;5038291;28;19917;-88
2022/09/20 12:36:49;;;;;;;;;;;;;;;24.92;21.19;100712.22;5051504;28;19917;-89
2022/09/20 12:39:16;;;;;;;;;;;;;;;25.06;21.00;100708.84;5037519;28;19896;-93
2022/09/20 12:41:52;;;;;;;;;;;;;;;25.07;20.93;100701.41;5053378;28;19916;-94
2022/09/20 12:44:30;;;;;;;;;;;;;;;24.99;21.14;100710.13;5026447;28;19987;-93
2022/09/20 12:47:17;;;;;;;;;;;;;;;25.00;21.47;100704.34;5063053;28;19982;-94
2022/09/20 12:53:03;;;;;;;;;;;;;;;25.21;21.38;100699.13;5032297;28;19920;-95
2022/09/20 12:55:31;;;;;;;;;;;;;;;24.38;21.42;100701.81;5051766;28;20384;-91
2022/09/20 12:58:05;;;;;;;;;;;;;;;23.82;22.30;100706.41;5037228;28;19923;-93
2022/09/20 13:00:41;;;;;;;;;;;;;;;23.62;22.70;100695.84;5053387;28;19952;-92
2022/09/20 13:03:11;;;;;;;;;;;;;;;23.27;22.79;100685.88;5039951;28;19971;-91
2022/09/20 13:05:40;;;;;;;;;;;;;;;22.90;23.05;100695.25;5052235;28;19919;-93
2022/09/20 13:08:25;;;;;;;;;;;;;;;22.65;23.47;100694.69;5036750;28;19938;-94
2022/09/20 13:11:05;;;;;;;;;;;;;;;22.59;23.82;100717.56;5045919;28;19909;-94
2022/09/20 13:13:43;;;;;;;;;;;;;;;22.18;24.58;100709.19;5040552;28;20003;-93
2022/09/20 13:16:16;;;;;;;;;;;;;;;22.12;24.72;100712.88;5056916;28;19946;-91
2022/09/20 13:18:42;;;;;;;;;;;;;;;21.88;24.73;100704.63;5035833;28;19921;-91
2022/09/20 13:21:09;;;;;;;;;;;;;;;21.61;25.00;100706.94;5041237;28;19913;-92
2022/09/20 13:23:45;;;;;;;;;;;;;;;21.91;24.90;100714.25;5031056;28;19904;-91
2022/09/20 13:26:13;;;;;;;;;;;;;;;21.96;25.25;100706.22;5068538;28;20112;-91
2022/09/20 13:28:43;;;;;;;;;;;;;;;21.77;25.25;100710.06;5070424;28;19946;-89
2022/09/20 13:31:15;;;;;;;;;;;;;;;21.56;25.42;100711.44;5029970;28;19951;-91
2022/09/20 13:33:44;;;;;;;;;;;;;;;21.56;25.17;100709.53;5051121;28;19920;-94